Yumenzhen, China
Current Conditions -  °F | °C
As of 1:00 AM on Tuesday 21 Oct 2014 (Local Time) from ZLLL Reporting Station
Haze Haze  
Wind Chill: 32°   Ceiling: Unl
Heat Index: 37°   Visibility: 2.5mi
Dew Point: 36°   Wind: 7mph
Humidity: 93%   Direction: 340°NNW
Pressure: 30.3"   Gusts: NA
Location:  40.27°N, 97.03°E
Report Text: ZLLL 201700Z 34003MPS 4000 BR NSC 03/02 Q1026 NOSIG
Loading
Personal Weather Stations






























Interactive Weather Map
Tropical Storm Tracking
New forecast layout! Learn more

10-Day Weather Forecast

Advertisements
Track Severe Weather on mobile